Time;durP1;ratioP1;P1;durP2;ratioP2;P2;SDS_P1;SDS_P2;PMS_P1;PMS_P2;Temp;Humidity;BMP_temperature;BMP_pressure;BME280_temperature;BME280_humidity;BME280_pressure;Samples;Min_cycle;Max_cycle;Signal;HPM_P1;HPM_P2
2022/12/24 00:01:48;;;;;;;24.30;5.95;;;17.10;97.00;;;;;;5075567;28;20427;-65
2022/12/24 00:04:14;;;;;;;23.95;5.63;;;17.10;97.10;;;;;;5075577;28;20040;-64
2022/12/24 00:06:39;;;;;;;24.15;5.90;;;17.10;97.20;;;;;;5075156;28;20484;-65
2022/12/24 00:09:05;;;;;;;20.75;5.53;;;17.20;97.30;;;;;;5075196;28;20366;-65
2022/12/24 00:11:30;;;;;;;27.48;6.18;;;17.30;97.70;;;;;;5075419;28;20440;-64
2022/12/24 00:13:56;;;;;;;22.20;5.50;;;17.10;97.20;;;;;;5075350;28;20028;-63
2022/12/24 00:16:22;;;;;;;27.38;5.47;;;17.00;97.10;;;;;;5075498;28;20164;-64
2022/12/24 00:18:48;;;;;;;25.38;5.63;;;17.10;97.30;;;;;;5075072;28;20021;-64
2022/12/24 00:21:15;;;;;;;23.63;5.72;;;16.80;96.80;;;;;;5075007;28;20029;-64
2022/12/24 00:23:40;;;;;;;26.95;6.00;;;16.90;96.90;;;;;;5074905;28;20155;-64
2022/12/24 00:26:06;;;;;;;18.52;5.32;;;17.00;97.10;;;;;;5075231;28;20540;-65
2022/12/24 00:28:31;;;;;;;24.65;5.85;;;17.10;97.10;;;;;;5074950;28;20036;-65
2022/12/24 00:30:57;;;;;;;24.90;6.25;;;17.10;96.90;;;;;;5075091;28;20024;-65
2022/12/24 00:33:22;;;;;;;29.48;6.10;;;16.90;97.00;;;;;;5074864;28;20021;-64
2022/12/24 00:35:50;;;;;;;21.75;5.78;;;16.90;96.80;;;;;;5074639;28;20469;-64
2022/12/24 00:38:16;;;;;;;24.00;5.28;;;17.00;97.20;;;;;;5075431;28;20028;-65
2022/12/24 00:40:42;;;;;;;19.67;5.32;;;16.80;97.00;;;;;;5074734;28;20025;-65
2022/12/24 00:43:07;;;;;;;27.70;5.93;;;16.80;97.20;;;;;;5074859;28;20035;-65
2022/12/24 00:45:33;;;;;;;23.05;5.63;;;16.90;97.40;;;;;;5069789;28;20115;-66
2022/12/24 00:47:58;;;;;;;29.73;6.20;;;17.10;97.40;;;;;;5069807;28;20100;-65
2022/12/24 00:50:24;;;;;;;25.70;5.50;;;17.00;97.20;;;;;;5072139;28;20020;-64
2022/12/24 00:52:49;;;;;;;19.23;4.03;;;16.90;97.20;;;;;;5073463;28;20032;-64
2022/12/24 00:55:15;;;;;;;18.80;5.57;;;17.00;97.50;;;;;;5074586;28;20082;-65
2022/12/24 00:57:40;;;;;;;22.05;5.80;;;17.10;97.40;;;;;;5073120;28;20032;-65
2022/12/24 01:00:07;;;;;;;19.83;5.47;;;17.20;97.50;;;;;;5074170;28;20112;-65
2022/12/24 01:02:33;;;;;;;21.20;5.45;;;17.20;97.50;;;;;;5072462;28;20384;-65
2022/12/24 01:05:11;;;;;;;17.08;5.15;;;17.10;97.40;;;;;;5072141;28;20111;-65
2022/12/24 01:07:39;;;;;;;20.38;4.60;;;17.10;97.50;;;;;;5054213;28;20037;-65
2022/12/24 01:10:06;;;;;;;19.23;4.28;;;17.10;97.40;;;;;;5054188;28;20032;-65
2022/12/24 01:12:32;;;;;;;25.38;5.05;;;17.20;97.40;;;;;;5060912;28;20493;-65
2022/12/24 01:14:58;;;;;;;16.75;4.82;;;17.00;97.40;;;;;;5071827;28;20056;-65
2022/12/24 01:17:23;;;;;;;20.38;5.38;;;17.10;97.40;;;;;;5072004;28;20029;-65
2022/12/24 01:19:49;;;;;;;18.95;4.22;;;17.00;97.30;;;;;;5073315;28;20078;-65
2022/12/24 01:22:15;;;;;;;26.73;5.63;;;17.00;97.30;;;;;;5074186;28;20021;-65
2022/12/24 01:24:41;;;;;;;22.10;5.80;;;17.00;97.20;;;;;;5073009;28;20454;-65
2022/12/24 01:27:07;;;;;;;18.50;4.57;;;17.00;97.40;;;;;;5076476;28;20060;-65
2022/12/24 01:29:32;;;;;;;22.88;5.45;;;17.00;97.60;;;;;;5082929;28;20055;-65
2022/12/24 01:31:58;;;;;;;16.23;4.30;;;16.90;97.40;;;;;;5073079;28;20035;-65
2022/12/24 01:34:23;;;;;;;19.45;5.05;;;16.90;97.60;;;;;;5073672;28;20032;-65
2022/12/24 01:36:49;;;;;;;18.95;4.60;;;17.10;97.60;;;;;;5073406;28;20031;-65
2022/12/24 01:39:14;;;;;;;17.30;4.72;;;17.10;97.40;;;;;;5073653;28;20042;-65
2022/12/24 01:44:30;;;;;;;17.13;4.00;;;17.10;97.40;;;;;;5073527;28;20048;-65
2022/12/24 01:47:26;;;;;;;19.05;3.97;;;17.10;97.50;;;;;;5073142;28;20549;-65
2022/12/24 01:50:09;;;;;;;17.63;3.53;;;17.10;97.60;;;;;;5069770;28;20043;-65
2022/12/24 01:52:35;;;;;;;14.82;3.15;;;17.00;97.40;;;;;;5073279;28;20021;-65
2022/12/24 01:55:08;;;;;;;16.98;4.28;;;17.00;97.20;;;;;;5073077;28;20111;-65
2022/12/24 01:57:38;;;;;;;18.48;4.63;;;16.90;97.10;;;;;;5056040;28;20501;-65
2022/12/24 02:00:07;;;;;;;19.80;4.32;;;17.00;97.20;;;;;;5073196;28;20036;-65
2022/12/24 02:02:33;;;;;;;13.43;3.65;;;16.90;97.40;;;;;;5072987;28;20032;-65
2022/12/24 02:05:09;;;;;;;16.35;4.25;;;16.90;97.40;;;;;;5072505;28;20548;-65
2022/12/24 02:07:35;;;;;;;17.45;3.85;;;16.90;97.30;;;;;;5071985;28;20522;-66
2022/12/24 02:10:04;;;;;;;13.85;3.58;;;16.80;97.50;;;;;;5073483;28;20043;-65
2022/12/24 02:12:33;;;;;;;17.13;3.92;;;16.90;97.50;;;;;;5073134;28;20051;-66
2022/12/24 02:14:59;;;;;;;15.30;4.18;;;16.80;97.50;;;;;;5072824;28;20086;-66
2022/12/24 02:18:07;;;;;;;17.63;4.65;;;16.90;97.50;;;;;;5072789;28;20158;-65
2022/12/24 02:20:48;;;;;;;15.75;3.58;;;16.90;97.50;;;;;;5030779;28;20034;-65
2022/12/24 02:23:55;;;;;;;17.25;3.85;;;16.90;97.50;;;;;;5029539;28;20030;-66
2022/12/24 02:26:38;;;;;;;17.52;4.53;;;16.80;97.60;;;;;;5004619;28;20050;-65
2022/12/24 02:29:41;;;;;;;16.58;3.65;;;16.80;97.50;;;;;;5057396;28;20051;-66
2022/12/24 02:32:45;;;;;;;20.23;3.50;;;16.80;97.80;;;;;;5063990;28;20116;-66
2022/12/24 02:35:20;;;;;;;19.50;4.18;;;16.80;97.80;;;;;;5051309;28;20028;-65
2022/12/24 02:37:57;;;;;;;15.20;4.25;;;16.70;97.70;;;;;;5052567;28;20020;-65
2022/12/24 02:40:28;;;;;;;17.92;4.30;;;16.80;97.70;;;;;;5053008;28;20074;-65
2022/12/24 02:42:59;;;;;;;15.13;4.00;;;16.80;97.70;;;;;;5052214;28;20027;-65
2022/12/24 02:45:28;;;;;;;15.38;4.30;;;16.90;97.70;;;;;;5051965;28;20037;-65
2022/12/24 02:47:54;;;;;;;19.50;4.28;;;16.90;97.70;;;;;;5052441;28;20382;-65
2022/12/24 02:50:21;;;;;;;18.98;4.88;;;16.80;97.70;;;;;;5052716;28;20028;-65
2022/12/24 02:52:47;;;;;;;21.20;4.18;;;16.70;97.50;;;;;;5052504;28;20044;-65
2022/12/24 02:55:16;;;;;;;12.40;3.20;;;16.70;98.00;;;;;;5052454;28;20496;-66
2022/12/24 02:58:09;;;;;;;15.52;4.07;;;16.80;97.70;;;;;;5052265;28;20143;-65
2022/12/24 03:01:20;;;;;;;17.35;4.32;;;16.80;97.70;;;;;;5052382;28;20576;-66
2022/12/24 03:03:52;;;;;;;15.88;3.97;;;16.90;97.70;;;;;;5033639;28;20045;-65
2022/12/24 03:07:04;;;;;;;19.83;3.63;;;16.70;97.70;;;;;;5052456;28;20566;-65
2022/12/24 03:09:55;;;;;;;15.85;3.63;;;16.80;97.70;;;;;;5052208;28;20071;-65
2022/12/24 03:12:36;;;;;;;14.57;3.95;;;16.90;97.60;;;;;;5052292;28;20056;-65
2022/12/24 03:15:04;;;;;;;14.98;3.65;;;16.80;97.50;;;;;;5052173;28;20112;-66
2022/12/24 03:17:33;;;;;;;21.55;4.63;;;16.90;97.50;;;;;;5052175;28;20021;-66
2022/12/24 03:19:59;;;;;;;14.38;3.83;;;16.70;97.40;;;;;;5050938;28;20037;-65
2022/12/24 03:22:25;;;;;;;18.98;4.18;;;16.80;97.50;;;;;;5052219;28;20023;-65
2022/12/24 03:24:51;;;;;;;17.98;3.95;;;16.80;97.50;;;;;;5052241;28;20021;-65
2022/12/24 03:27:17;;;;;;;19.25;4.88;;;16.70;97.50;;;;;;5056173;28;20397;-66
2022/12/24 03:29:44;;;;;;;18.73;3.95;;;16.70;97.30;;;;;;5055958;28;20091;-65
2022/12/24 03:32:10;;;;;;;15.73;4.60;;;16.70;97.30;;;;;;5056004;28;20035;-66
2022/12/24 03:34:35;;;;;;;19.77;3.67;;;16.70;97.30;;;;;;5056257;28;20409;-65
2022/12/24 03:37:01;;;;;;;12.25;3.17;;;16.70;97.30;;;;;;5056219;28;20046;-66
2022/12/24 03:39:27;;;;;;;14.35;3.90;;;16.60;97.40;;;;;;5056002;28;20040;-65
2022/12/24 03:41:52;;;;;;;16.48;4.20;;;16.60;97.30;;;;;;5056188;28;20017;-65
2022/12/24 03:44:18;;;;;;;13.38;4.00;;;16.70;97.30;;;;;;5055554;28;20044;-65
2022/12/24 03:46:44;;;;;;;12.27;3.72;;;16.60;97.30;;;;;;5055862;28;20083;-65
2022/12/24 03:49:09;;;;;;;15.30;3.92;;;16.70;97.40;;;;;;5055770;28;20021;-66
2022/12/24 03:51:35;;;;;;;16.85;4.07;;;16.70;97.40;;;;;;5055933;28;20032;-65
2022/12/24 03:54:00;;;;;;;15.32;4.03;;;16.50;97.30;;;;;;5055642;28;20025;-66
2022/12/24 03:56:26;;;;;;;13.68;3.80;;;16.50;97.30;;;;;;5055649;28;20029;-66
2022/12/24 03:58:52;;;;;;;17.55;3.67;;;16.60;97.30;;;;;;5055243;28;20033;-66
2022/12/24 04:01:18;;;;;;;12.93;3.22;;;16.60;97.40;;;;;;5055859;28;20056;-66
2022/12/24 04:03:44;;;;;;;17.50;4.65;;;16.50;97.40;;;;;;5055566;28;20100;-65
2022/12/24 04:06:12;;;;;;;12.05;3.42;;;16.70;97.30;;;;;;5055531;28;20156;-65
2022/12/24 04:08:38;;;;;;;13.35;3.78;;;16.70;97.30;;;;;;5055325;28;20044;-65
2022/12/24 04:11:05;;;;;;;14.35;3.28;;;16.70;97.30;;;;;;5054123;28;20358;-65
2022/12/24 04:13:31;;;;;;;14.88;3.38;;;16.70;97.20;;;;;;5055010;28;20112;-65
2022/12/24 04:16:07;;;;;;;13.82;3.67;;;16.70;97.20;;;;;;5055462;28;20059;-66
2022/12/24 04:18:33;;;;;;;13.15;3.55;;;16.70;97.10;;;;;;5055510;28;20112;-66
2022/12/24 04:20:59;;;;;;;15.70;3.88;;;16.60;97.30;;;;;;5055194;28;20048;-66
2022/12/24 04:23:25;;;;;;;18.83;3.45;;;16.70;97.30;;;;;;5053949;28;20025;-65
2022/12/24 04:25:51;;;;;;;15.23;3.70;;;16.60;97.10;;;;;;5054991;28;20112;-65
2022/12/24 04:28:16;;;;;;;13.95;3.85;;;16.60;97.50;;;;;;5054708;28;20078;-65
2022/12/24 04:30:42;;;;;;;17.05;4.20;;;16.50;97.20;;;;;;5055024;28;20041;-65
2022/12/24 04:33:08;;;;;;;14.25;3.92;;;16.60;97.10;;;;;;5055105;28;20098;-65
2022/12/24 04:35:40;;;;;;;15.90;4.20;;;16.70;97.10;;;;;;5053614;28;20057;-65
2022/12/24 04:38:08;;;;;;;14.55;3.72;;;16.70;97.20;;;;;;5053804;28;20032;-65
2022/12/24 04:40:33;;;;;;;16.90;4.18;;;16.50;97.20;;;;;;5054861;28;20092;-65
2022/12/24 04:42:59;;;;;;;18.08;5.03;;;16.30;97.20;;;;;;5054943;28;20450;-65
2022/12/24 04:45:24;;;;;;;16.92;4.22;;;16.20;97.30;;;;;;5054593;28;20025;-65
2022/12/24 04:47:50;;;;;;;20.13;4.70;;;16.40;97.20;;;;;;5054703;28;20025;-65
2022/12/24 04:50:15;;;;;;;17.67;4.30;;;16.30;97.10;;;;;;5054571;28;20466;-65
2022/12/24 04:52:41;;;;;;;18.90;4.93;;;16.40;97.00;;;;;;5054762;28;20081;-65
2022/12/24 04:55:07;;;;;;;12.60;3.20;;;16.40;97.10;;;;;;5054559;28;20110;-66
2022/12/24 04:57:34;;;;;;;21.80;5.10;;;16.50;97.20;;;;;;5054387;28;20053;-65
2022/12/24 05:00:00;;;;;;;18.55;4.05;;;16.40;97.20;;;;;;5054476;28;20413;-65
2022/12/24 05:02:26;;;;;;;14.25;4.10;;;16.40;97.10;;;;;;5054567;28;20470;-66
2022/12/24 05:04:51;;;;;;;19.77;4.72;;;16.40;97.00;;;;;;5054827;28;20021;-66
2022/12/24 05:07:17;;;;;;;23.50;4.70;;;16.40;96.90;;;;;;5054237;28;20385;-66
2022/12/24 05:09:42;;;;;;;19.65;4.65;;;16.30;97.00;;;;;;5054359;28;20025;-66
2022/12/24 05:12:08;;;;;;;16.95;4.30;;;16.40;97.00;;;;;;5054001;28;20025;-65
2022/12/24 05:14:33;;;;;;;15.32;4.00;;;16.30;97.00;;;;;;5054276;28;20477;-66
2022/12/24 05:16:59;;;;;;;14.75;3.65;;;16.30;97.20;;;;;;5054270;28;20527;-66
2022/12/24 05:19:24;;;;;;;15.23;4.22;;;16.40;97.20;;;;;;5053852;28;20017;-65
2022/12/24 05:26:20;;;;;;;15.48;4.57;;;16.40;97.10;;;;;;5054284;28;20350;-66
2022/12/24 05:27:19;;;;;;;19.20;4.82;;;16.30;97.10;;;;;;5053875;28;20048;-65
2022/12/24 05:29:45;;;;;;;16.38;4.13;;;16.20;97.10;;;;;;5053725;28;20136;-66
2022/12/24 05:32:10;;;;;;;17.17;3.85;;;16.30;97.20;;;;;;5054029;28;20430;-65
2022/12/24 05:34:36;;;;;;;21.25;4.38;;;16.30;97.10;;;;;;5053710;28;20524;-65
2022/12/24 05:37:01;;;;;;;18.55;4.30;;;16.30;97.10;;;;;;5054012;28;20493;-65
2022/12/24 05:39:27;;;;;;;19.83;4.35;;;16.10;96.90;;;;;;5053512;28;20029;-65
2022/12/24 05:41:52;;;;;;;20.73;4.47;;;16.00;97.10;;;;;;5053740;28;20025;-66
2022/12/24 05:44:18;;;;;;;17.58;3.47;;;16.00;97.10;;;;;;5053724;28;20158;-65
2022/12/24 05:46:44;;;;;;;19.25;4.68;;;16.00;97.40;;;;;;5053805;28;21260;-65
2022/12/24 05:49:10;;;;;;;18.00;4.07;;;16.10;97.10;;;;;;5053043;28;20066;-66
2022/12/24 05:51:35;;;;;;;20.75;4.95;;;16.10;97.20;;;;;;5053604;28;20024;-65
2022/12/24 05:54:01;;;;;;;20.05;4.38;;;16.00;97.10;;;;;;5053330;28;20029;-65
2022/12/24 05:56:27;;;;;;;19.55;4.55;;;16.00;97.10;;;;;;5053387;28;20022;-65
2022/12/24 05:58:53;;;;;;;16.70;4.00;;;15.80;97.50;;;;;;5053270;28;20051;-66
2022/12/24 06:01:20;;;;;;;18.17;4.32;;;16.00;97.30;;;;;;5057325;28;20533;-65
2022/12/24 06:03:48;;;;;;;19.80;4.35;;;15.80;97.30;;;;;;5073532;28;20028;-65
2022/12/24 06:06:18;;;;;;;20.10;4.70;;;15.90;97.30;;;;;;5072478;28;20032;-65
2022/12/24 06:08:44;;;;;;;20.08;4.30;;;16.00;97.30;;;;;;5071943;28;20020;-65
2022/12/24 06:11:13;;;;;;;18.80;3.78;;;16.10;97.30;;;;;;5073181;28;20469;-65
2022/12/24 06:13:40;;;;;;;16.58;4.22;;;15.90;97.20;;;;;;5073065;28;20050;-65
2022/12/24 06:16:07;;;;;;;18.45;4.75;;;15.90;97.40;;;;;;5073062;28;20021;-66
2022/12/24 06:18:35;;;;;;;22.52;4.45;;;16.00;97.40;;;;;;5072768;28;20052;-66
2022/12/24 06:21:01;;;;;;;15.93;3.97;;;16.10;97.40;;;;;;5073001;28;20020;-65
2022/12/24 06:23:29;;;;;;;14.73;4.13;;;16.10;97.30;;;;;;5072690;28;20527;-65
2022/12/24 06:25:57;;;;;;;16.33;4.57;;;16.00;97.20;;;;;;5073243;28;20074;-65
2022/12/24 06:28:23;;;;;;;16.48;4.15;;;16.00;97.20;;;;;;5072656;28;20388;-66
2022/12/24 06:30:50;;;;;;;18.48;4.50;;;15.90;97.30;;;;;;5072712;28;20048;-66
2022/12/24 06:33:17;;;;;;;21.88;4.78;;;16.00;97.30;;;;;;5072820;28;20031;-66
2022/12/24 06:35:47;;;;;;;18.25;4.70;;;15.90;97.30;;;;;;5072860;28;20020;-66
2022/12/24 06:38:14;;;;;;;19.48;4.75;;;15.80;97.30;;;;;;5072419;28;20039;-65
2022/12/24 06:40:41;;;;;;;19.05;4.20;;;15.90;97.40;;;;;;5072573;28;20031;-66
2022/12/24 06:43:06;;;;;;;19.95;5.40;;;15.80;97.40;;;;;;5072948;28;20048;-66
2022/12/24 06:45:32;;;;;;;18.67;4.38;;;16.00;97.40;;;;;;5071266;28;20512;-65
2022/12/24 06:47:59;;;;;;;17.10;4.47;;;15.90;97.30;;;;;;5072590;28;20031;-66
2022/12/24 06:50:24;;;;;;;21.08;4.68;;;15.90;97.30;;;;;;5072663;28;20052;-65
2022/12/24 06:52:50;;;;;;;17.55;4.30;;;15.90;97.30;;;;;;5072305;28;20048;-66
2022/12/24 06:55:15;;;;;;;17.98;4.25;;;16.00;97.30;;;;;;5072586;28;20381;-65
2022/12/24 06:57:41;;;;;;;15.50;3.92;;;16.00;97.40;;;;;;5072322;28;20504;-65
2022/12/24 07:00:08;;;;;;;25.75;5.07;;;15.90;97.40;;;;;;5071768;28;20025;-65
2022/12/24 07:02:34;;;;;;;15.73;4.28;;;15.80;97.40;;;;;;5072434;28;20570;-66
2022/12/24 07:05:00;;;;;;;17.85;4.63;;;15.80;97.40;;;;;;5072381;28;20024;-65
2022/12/24 07:07:25;;;;;;;20.42;4.38;;;15.90;97.40;;;;;;5070102;28;20029;-66
2022/12/24 07:09:51;;;;;;;16.85;4.18;;;15.80;97.30;;;;;;5072319;28;20473;-66
2022/12/24 07:12:16;;;;;;;22.02;4.65;;;15.90;97.50;;;;;;5060112;28;20139;-64
2022/12/24 07:14:42;;;;;;;13.00;3.55;;;15.90;97.50;;;;;;5069347;28;20032;-65
2022/12/24 07:17:07;;;;;;;25.85;4.20;;;15.90;97.70;;;;;;5060472;28;20032;-65
2022/12/24 07:19:33;;;;;;;15.85;3.70;;;16.00;97.70;;;;;;5066995;28;20114;-65
2022/12/24 07:21:59;;;;;;;18.23;3.80;;;16.00;97.60;;;;;;5064072;28;20078;-65
2022/12/24 07:24:24;;;;;;;16.52;4.22;;;16.10;97.50;;;;;;5064851;28;20028;-65
2022/12/24 07:26:50;;;;;;;18.52;3.90;;;16.00;97.40;;;;;;5060978;28;20563;-65
2022/12/24 07:29:16;;;;;;;18.85;3.80;;;16.10;97.30;;;;;;5051843;28;20017;-65
2022/12/24 07:31:41;;;;;;;19.00;4.40;;;16.20;97.30;;;;;;5059899;28;20035;-65
2022/12/24 07:34:07;;;;;;;24.00;4.80;;;16.10;97.20;;;;;;5053472;28;20100;-66
2022/12/24 07:36:32;;;;;;;17.13;4.07;;;16.10;97.20;;;;;;5060408;28;20044;-65
2022/12/24 07:38:58;;;;;;;20.77;4.38;;;16.10;97.20;;;;;;5051608;28;20059;-65
2022/12/24 07:41:23;;;;;;;19.75;4.45;;;16.10;97.20;;;;;;5051615;28;20091;-65
2022/12/24 07:43:49;;;;;;;19.77;5.10;;;16.10;97.10;;;;;;5060839;28;20082;-66
2022/12/24 07:46:15;;;;;;;22.77;5.50;;;16.10;97.10;;;;;;5063760;28;20033;-66
2022/12/24 07:48:40;;;;;;;25.08;5.63;;;16.10;97.10;;;;;;5050770;28;20520;-65
2022/12/24 07:51:06;;;;;;;28.60;6.05;;;16.10;97.10;;;;;;5061426;28;20029;-65
2022/12/24 07:53:32;;;;;;;16.85;3.72;;;16.10;96.90;;;;;;5055829;28;20024;-66
2022/12/24 07:55:58;;;;;;;21.33;5.45;;;16.10;97.00;;;;;;5058599;28;20032;-66
2022/12/24 07:58:24;;;;;;;25.08;5.15;;;16.00;97.00;;;;;;5050985;28;20025;-65
2022/12/24 08:00:58;;;;;;;34.13;6.22;;;16.00;97.00;;;;;;5051150;28;20036;-66
2022/12/24 08:03:24;;;;;;;23.95;5.30;;;15.90;97.40;;;;;;5060571;28;20025;-66
2022/12/24 08:05:51;;;;;;;33.00;5.40;;;15.80;97.80;;;;;;5059885;28;20039;-67
2022/12/24 08:08:17;;;;;;;27.13;5.72;;;15.60;98.00;;;;;;5061927;28;20029;-67
2022/12/24 08:10:44;;;;;;;31.40;5.68;;;15.60;98.20;;;;;;5058117;28;20023;-66
2022/12/24 08:13:10;;;;;;;27.95;6.10;;;15.60;98.30;;;;;;5070637;28;20083;-66
2022/12/24 08:15:35;;;;;;;27.30;5.53;;;15.70;98.20;;;;;;5073204;28;20497;-66
2022/12/24 08:18:01;;;;;;;28.10;5.55;;;15.70;98.20;;;;;;5069502;28;20130;-65
2022/12/24 08:20:26;;;;;;;20.67;4.95;;;15.80;98.10;;;;;;5072246;28;20028;-66
2022/12/24 08:22:52;;;;;;;25.73;5.20;;;15.70;98.20;;;;;;5062432;28;20358;-67
2022/12/24 08:25:18;;;;;;;31.52;6.18;;;15.70;98.00;;;;;;5073600;28;20484;-66
2022/12/24 08:27:43;;;;;;;29.02;5.53;;;15.80;98.20;;;;;;5069243;28;20121;-66
2022/12/24 08:30:09;;;;;;;25.88;5.85;;;15.90;98.10;;;;;;5068475;28;20040;-66
2022/12/24 08:32:35;;;;;;;25.85;5.28;;;15.90;98.00;;;;;;5073886;28;20036;-66
2022/12/24 08:35:00;;;;;;;26.60;5.45;;;15.80;98.00;;;;;;5069559;28;20024;-67
2022/12/24 08:37:26;;;;;;;26.33;5.45;;;15.90;98.00;;;;;;5069779;28;20034;-67
2022/12/24 08:39:51;;;;;;;25.20;5.82;;;15.90;98.30;;;;;;5066824;28;20025;-65
2022/12/24 08:42:17;;;;;;;29.83;5.70;;;15.90;98.30;;;;;;5073318;28;20043;-67
2022/12/24 08:44:42;;;;;;;31.55;5.05;;;16.00;98.40;;;;;;5061930;28;20385;-66
2022/12/24 08:47:08;;;;;;;26.85;5.72;;;16.00;98.40;;;;;;5066183;28;20474;-65
2022/12/24 08:49:33;;;;;;;26.95;5.90;;;16.00;98.30;;;;;;5070411;28;20477;-64
2022/12/24 08:51:59;;;;;;;29.52;5.45;;;16.00;98.40;;;;;;5057905;28;20032;-65
2022/12/24 08:54:25;;;;;;;31.83;6.18;;;16.00;98.10;;;;;;5064484;28;20036;-66
2022/12/24 08:56:50;;;;;;;29.58;6.18;;;15.80;98.10;;;;;;5050479;28;20028;-66
2022/12/24 08:59:16;;;;;;;32.75;5.53;;;15.90;98.00;;;;;;5054305;28;20029;-67
2022/12/24 09:01:42;;;;;;;26.75;5.00;;;15.80;97.80;;;;;;5058173;28;21087;-66
2022/12/24 09:04:08;;;;;;;24.27;4.88;;;15.80;97.70;;;;;;5065860;28;20086;-65
2022/12/24 09:06:34;;;;;;;28.05;6.07;;;15.70;97.60;;;;;;5067426;28;20397;-65
2022/12/24 09:09:01;;;;;;;30.30;5.90;;;15.70;97.60;;;;;;5071636;28;20025;-66
2022/12/24 09:11:27;;;;;;;20.75;5.20;;;15.80;97.60;;;;;;5067182;28;20063;-66
2022/12/24 09:13:53;;;;;;;23.00;4.70;;;15.90;97.50;;;;;;5068050;28;20063;-65
2022/12/24 09:16:19;;;;;;;28.13;5.28;;;15.90;97.40;;;;;;5070972;28;20027;-66
2022/12/24 09:18:44;;;;;;;25.80;5.22;;;16.00;97.20;;;;;;5064957;28;20036;-66
2022/12/24 09:21:13;;;;;;;22.88;5.25;;;16.10;97.10;;;;;;5069934;28;20025;-66
2022/12/24 09:23:40;;;;;;;24.35;5.38;;;16.10;97.10;;;;;;5067163;28;20041;-66
2022/12/24 09:26:13;;;;;;;20.50;5.00;;;16.00;96.80;;;;;;5066333;28;20033;-63
2022/12/24 09:28:38;;;;;;;23.08;5.40;;;16.10;96.80;;;;;;5063233;28;20433;-65
2022/12/24 09:31:04;;;;;;;23.73;4.85;;;16.10;97.00;;;;;;5066269;28;20086;-64
2022/12/24 09:33:34;;;;;;;20.65;4.22;;;15.90;96.70;;;;;;5063577;28;20036;-64
2022/12/24 09:36:00;;;;;;;20.63;5.22;;;15.90;97.00;;;;;;5068920;28;20245;-65
2022/12/24 09:38:26;;;;;;;18.83;4.75;;;16.00;97.20;;;;;;5063770;28;20146;-64
2022/12/24 09:40:53;;;;;;;23.25;5.63;;;16.20;97.10;;;;;;5070146;28;20515;-64
2022/12/24 09:43:22;;;;;;;19.77;4.82;;;16.20;97.00;;;;;;5066411;28;20036;-64
2022/12/24 09:45:59;;;;;;;17.50;4.80;;;16.20;97.30;;;;;;5068950;28;20098;-64
2022/12/24 09:48:29;;;;;;;24.52;4.95;;;16.10;97.30;;;;;;5062616;28;20036;-63
2022/12/24 09:50:57;;;;;;;20.27;4.55;;;16.00;97.50;;;;;;5069698;28;20103;-64
2022/12/24 09:53:36;;;;;;;22.48;5.43;;;15.90;97.70;;;;;;5068779;28;20052;-64
2022/12/24 09:56:10;;;;;;;23.27;5.70;;;16.00;97.60;;;;;;5069486;28;20095;-64
2022/12/24 09:58:44;;;;;;;24.42;6.78;;;16.00;97.30;;;;;;5062376;28;20020;-65
2022/12/24 10:01:15;;;;;;;27.40;6.20;;;15.40;98.00;;;;;;5060538;28;20044;-63
2022/12/24 10:03:40;;;;;;;25.42;6.22;;;15.10;98.00;;;;;;5062724;28;20035;-63
2022/12/24 10:06:27;;;;;;;21.02;5.18;;;15.10;98.00;;;;;;5068245;28;20028;-63
2022/12/24 10:09:01;;;;;;;23.35;6.13;;;15.30;98.10;;;;;;5068880;28;20032;-63
2022/12/24 10:11:55;;;;;;;21.38;5.32;;;15.70;98.40;;;;;;5069448;28;20039;-63
2022/12/24 10:14:49;;;;;;;23.42;4.85;;;16.00;97.90;;;;;;5066122;28;20033;-65
2022/12/24 10:17:24;;;;;;;29.20;5.13;;;16.00;97.40;;;;;;5060749;28;20017;-64
2022/12/24 10:20:02;;;;;;;21.55;5.53;;;16.10;97.50;;;;;;5068565;28;20164;-63
2022/12/24 10:22:51;;;;;;;25.50;5.68;;;16.20;97.50;;;;;;5069529;28;20032;-63
2022/12/24 10:25:26;;;;;;;28.17;5.45;;;16.20;97.60;;;;;;5064876;28;20021;-63
2022/12/24 10:27:54;;;;;;;21.08;5.22;;;16.20;97.50;;;;;;5067395;28;20032;-63
2022/12/24 10:30:22;;;;;;;25.95;5.63;;;16.10;97.50;;;;;;5063369;28;20443;-62
2022/12/24 10:32:50;;;;;;;20.38;5.18;;;16.20;97.50;;;;;;5061009;28;20043;-64
2022/12/24 10:35:16;;;;;;;26.27;6.07;;;16.20;97.50;;;;;;5068868;28;20047;-64
2022/12/24 10:37:47;;;;;;;23.85;5.28;;;16.20;97.30;;;;;;5067562;28;20127;-64
2022/12/24 10:40:23;;;;;;;22.95;6.25;;;16.10;97.40;;;;;;5059500;28;20028;-64
2022/12/24 10:42:49;;;;;;;21.67;5.97;;;16.20;97.30;;;;;;5065805;28;20350;-65
2022/12/24 10:45:19;;;;;;;25.02;4.90;;;16.30;97.30;;;;;;5062222;28;20108;-66
2022/12/24 10:47:50;;;;;;;23.40;5.70;;;16.20;97.20;;;;;;5057722;28;20029;-65
2022/12/24 10:50:21;;;;;;;23.30;4.68;;;16.20;97.20;;;;;;5061050;28;20086;-65
2022/12/24 10:52:50;;;;;;;25.60;5.55;;;16.20;97.30;;;;;;5063098;28;20051;-64
2022/12/24 10:55:18;;;;;;;22.35;4.80;;;16.20;97.20;;;;;;5064287;28;20071;-67
2022/12/24 10:57:59;;;;;;;31.42;6.25;;;16.30;97.20;;;;;;5066658;28;20393;-66
2022/12/24 11:00:25;;;;;;;25.52;6.00;;;16.10;97.30;;;;;;5066613;28;20028;-65
2022/12/24 11:03:07;;;;;;;31.88;6.68;;;16.10;97.40;;;;;;5067552;28;20020;-65
2022/12/24 11:05:34;;;;;;;28.83;5.67;;;16.20;97.50;;;;;;5061594;28;20495;-65
2022/12/24 11:08:01;;;;;;;22.85;5.32;;;16.30;97.40;;;;;;5065345;28;20380;-66
2022/12/24 11:10:27;;;;;;;25.00;6.45;;;16.20;97.40;;;;;;5068048;28;20032;-65
2022/12/24 11:12:53;;;;;;;32.75;5.93;;;16.20;97.40;;;;;;5066143;28;20030;-66
2022/12/24 11:15:23;;;;;;;28.13;5.55;;;16.10;97.40;;;;;;5066844;28;20099;-65
2022/12/24 11:17:54;;;;;;;22.35;5.88;;;16.20;97.60;;;;;;5065158;28;20031;-65
2022/12/24 11:20:25;;;;;;;26.73;5.95;;;16.10;97.60;;;;;;5066207;28;20159;-65
2022/12/24 11:22:51;;;;;;;30.05;6.75;;;16.20;98.10;;;;;;5064252;28;20024;-66
2022/12/24 11:25:27;;;;;;;33.45;6.38;;;16.20;98.10;;;;;;5066036;28;20028;-65
2022/12/24 11:27:55;;;;;;;26.20;5.47;;;16.20;98.30;;;;;;5057562;28;20032;-65
2022/12/24 11:30:32;;;;;;;28.92;7.13;;;16.20;98.20;;;;;;5064788;28;20064;-64
2022/12/24 11:33:01;;;;;;;28.08;7.10;;;16.20;98.70;;;;;;5064210;28;20036;-65
2022/12/24 11:35:28;;;;;;;30.42;7.18;;;16.20;99.00;;;;;;5059995;28;20020;-63
2022/12/24 11:38:00;;;;;;;28.13;6.43;;;16.10;98.50;;;;;;5054788;28;20112;-64
2022/12/24 11:40:34;;;;;;;30.10;6.15;;;16.10;97.80;;;;;;5064709;28;20103;-66
2022/12/24 11:43:00;;;;;;;26.58;7.00;;;16.10;97.60;;;;;;5058373;28;20020;-64
2022/12/24 11:45:28;;;;;;;33.75;6.35;;;16.10;97.50;;;;;;5060098;28;20481;-64
2022/12/24 11:47:55;;;;;;;24.63;6.72;;;16.20;97.30;;;;;;5064075;28;20025;-64
2022/12/24 11:50:23;;;;;;;22.63;5.53;;;16.10;97.30;;;;;;5071104;28;20039;-64
2022/12/24 11:53:14;;;;;;;27.17;5.85;;;16.20;97.40;;;;;;5070672;28;20032;-66
2022/12/24 11:55:58;;;;;;;27.92;6.38;;;16.20;97.30;;;;;;5063676;28;20016;-69
2022/12/24 11:58:44;;;;;;;27.88;7.68;;;16.20;97.40;;;;;;5064275;28;20144;-67
2022/12/24 12:01:20;;;;;;;28.30;6.03;;;16.10;97.40;;;;;;5068567;28;20477;-65
2022/12/24 12:03:52;;;;;;;22.73;5.68;;;16.10;97.40;;;;;;5066918;28;20025;-73
2022/12/24 12:06:33;;;;;;;21.08;5.80;;;16.10;97.20;;;;;;5067723;28;20098;-71
2022/12/24 12:09:21;;;;;;;23.45;5.38;;;16.00;97.40;;;;;;5065925;28;20033;-65
2022/12/24 12:11:51;;;;;;;27.92;5.93;;;16.10;97.40;;;;;;5060986;28;20078;-67
2022/12/24 12:14:46;;;;;;;37.53;5.75;;;16.10;97.60;;;;;;5068810;28;20029;-66
2022/12/24 12:17:35;;;;;;;30.63;6.57;;;16.10;97.70;;;;;;5070512;28;20089;-65
2022/12/24 12:20:14;;;;;;;27.65;5.60;;;16.20;97.70;;;;;;5064051;28;20032;-65
2022/12/24 12:22:55;;;;;;;22.75;5.50;;;16.20;97.70;;;;;;5068337;28;20044;-63
2022/12/24 12:25:41;;;;;;;32.90;6.18;;;16.20;98.00;;;;;;5067354;28;20044;-65
2022/12/24 12:28:33;;;;;;;26.45;5.88;;;16.30;98.00;;;;;;5054315;28;20409;-63
2022/12/24 12:31:08;;;;;;;26.20;5.90;;;16.30;97.90;;;;;;5055955;28;20114;-65
2022/12/24 12:33:46;;;;;;;24.88;6.40;;;16.30;97.90;;;;;;5070208;28;20064;-63
2022/12/24 12:36:15;;;;;;;25.58;6.18;;;16.30;97.80;;;;;;5063826;28;20035;-65
2022/12/24 12:38:40;;;;;;;27.15;6.22;;;16.20;97.70;;;;;;5069342;28;20441;-66
2022/12/24 12:41:33;;;;;;;29.23;5.82;;;16.30;98.10;;;;;;5069224;28;20060;-65
2022/12/24 12:44:23;;;;;;;24.02;5.57;;;16.30;98.50;;;;;;5066961;28;20142;-64
2022/12/24 12:47:13;;;;;;;29.75;6.03;;;16.30;98.30;;;;;;5064655;28;20040;-63
2022/12/24 12:49:50;;;;;;;24.10;5.47;;;16.30;98.40;;;;;;5064482;28;20029;-65
2022/12/24 12:52:27;;;;;;;26.20;6.88;;;16.20;98.30;;;;;;5069814;28;20469;-68
2022/12/24 12:55:15;;;;;;;23.90;5.85;;;16.10;98.20;;;;;;5069542;28;20032;-63